Time,TemperatureF,DewpointF,PressureIn,WindDirection,WindDirectionDegrees,WindSpeedMPH,WindSpeedGustMPH,Humidity,HourlyPrecipIn,Conditions,Clouds,dailyrainin,SolarRadiationWatts/m^2,SoftwareType,DateUTC
2013-07-12 00:01:00,63.4,60.4,29.87,West,261,0.0,0.0,90,0.00,,---,0.00,0.00,VWS V14.00,2013-07-12 07:01:00,
2013-07-12 00:06:00,63.4,60.4,29.87,West,261,0.0,0.0,90,0.00,,---,0.00,0.00,VWS V14.00,2013-07-12 07:06:00,
2013-07-12 00:11:00,63.4,60.4,29.87,West,261,0.0,0.0,90,0.00,,---,0.00,0.00,VWS V14.00,2013-07-12 07:11:00,
2013-07-12 00:16:00,63.2,60.2,29.87,West,261,0.0,0.0,90,0.00,,---,0.00,0.00,VWS V14.00,2013-07-12 07:16:00,
2013-07-12 00:21:00,63.2,60.2,29.87,West,261,0.0,0.0,90,0.00,,---,0.00,0.00,VWS V14.00,2013-07-12 07:21:00,
2013-07-12 00:26:00,63.2,60.2,29.87,West,261,0.0,0.0,90,0.00,,---,0.00,0.00,VWS V14.00,2013-07-12 07:26:00,
2013-07-12 00:31:00,63.1,60.1,29.87,West,261,0.0,0.0,90,0.00,,---,0.00,0.00,VWS V14.00,2013-07-12 07:31:00,
2013-07-12 00:36:00,63.1,60.1,29.87,West,261,0.0,0.0,90,0.00,,---,0.00,0.00,VWS V14.00,2013-07-12 07:36:00,
2013-07-12 00:41:00,62.9,59.9,29.87,West,261,0.0,0.0,90,0.00,,---,0.00,0.00,VWS V14.00,2013-07-12 07:41:00,
2013-07-12 00:46:00,62.9,59.9,29.87,West,261,0.0,0.0,90,0.00,,---,0.00,0.00,VWS V14.00,2013-07-12 07:46:00,
2013-07-12 00:51:00,62.7,60.0,29.86,West,261,0.0,0.0,91,0.00,,---,0.00,0.00,VWS V14.00,2013-07-12 07:51:00,
2013-07-12 00:56:00,62.7,60.0,29.86,West,261,0.0,0.0,91,0.00,,---,0.00,0.00,VWS V14.00,2013-07-12 07:56:00,
2013-07-12 01:01:00,62.7,60.3,29.86,West,261,0.0,0.0,92,0.00,,---,0.00,0.00,VWS V14.00,2013-07-12 08:01:00,
2013-07-12 01:06:00,62.6,60.2,29.86,West,261,0.0,0.0,92,0.00,,---,0.00,0.00,VWS V14.00,2013-07-12 08:06:00,
2013-07-12 01:11:00,62.6,60.2,29.86,West,261,0.0,0.0,92,0.00,,---,0.00,0.00,VWS V14.00,2013-07-12 08:11:00,
2013-07-12 01:16:00,62.6,60.2,29.86,West,261,0.0,0.0,92,0.00,,---,0.00,0.00,VWS V14.00,2013-07-12 08:16:00,
2013-07-12 01:21:00,62.4,60.0,29.86,West,261,0.0,0.0,92,0.00,,---,0.00,0.00,VWS V14.00,2013-07-12 08:21:00,
2013-07-12 01:26:00,62.3,60.2,29.86,West,261,0.0,0.0,93,0.00,,---,0.00,0.00,VWS V14.00,2013-07-12 08:26:00,
2013-07-12 01:31:00,62.1,60.1,29.86,West,261,0.0,0.0,93,0.00,,---,0.00,0.00,VWS V14.00,2013-07-12 08:31:00,
2013-07-12 01:36:00,62.3,60.2,29.86,West,261,0.0,0.0,93,0.00,,---,0.00,0.00,VWS V14.00,2013-07-12 08:36:00,
2013-07-12 01:41:00,62.3,60.2,29.86,West,261,0.0,0.0,93,0.00,,---,0.00,0.00,VWS V14.00,2013-07-12 08:41:00,
2013-07-12 01:46:00,62.3,60.2,29.86,West,261,0.0,0.0,93,0.00,,---,0.00,0.00,VWS V14.00,2013-07-12 08:46:00,
2013-07-12 01:51:00,62.3,60.2,29.86,West,261,0.0,0.0,93,0.00,,---,0.00,0.00,VWS V14.00,2013-07-12 08:51:00,
2013-07-12 01:56:00,62.1,60.1,29.86,West,261,0.0,0.0,93,0.00,,---,0.00,0.00,VWS V14.00,2013-07-12 08:56:00,
2013-07-12 02:01:00,62.1,60.1,29.86,West,261,0.0,0.0,93,0.00,,---,0.00,0.00,VWS V14.00,2013-07-12 09:01:00,
2013-07-12 02:06:00,62.1,60.1,29.86,West,261,0.0,0.0,93,0.00,,---,0.00,0.00,VWS V14.00,2013-07-12 09:06:00,
2013-07-12 02:11:00,62.0,60.0,29.86,West,261,0.0,0.0,93,0.00,,---,0.00,0.00,VWS V14.00,2013-07-12 09:11:00,
2013-07-12 02:16:00,61.8,59.8,29.86,West,261,0.0,0.0,93,0.00,,---,0.00,0.00,VWS V14.00,2013-07-12 09:16:00,
2013-07-12 02:21:00,61.8,59.8,29.86,West,261,0.0,0.0,93,0.00,,---,0.00,0.00,VWS V14.00,2013-07-12 09:21:00,
2013-07-12 02:26:00,61.8,59.8,29.86,West,261,0.0,0.0,93,0.00,,---,0.00,0.00,VWS V14.00,2013-07-12 09:26:00,
2013-07-12 02:31:00,61.8,59.8,29.86,West,261,0.0,0.0,93,0.00,,---,0.00,0.00,VWS V14.00,2013-07-12 09:31:00,
2013-07-12 02:36:00,61.8,59.8,29.86,West,261,0.0,0.0,93,0.00,,---,0.00,0.00,VWS V14.00,2013-07-12 09:36:00,
2013-07-12 02:41:00,61.6,59.6,29.86,West,261,0.0,0.0,93,0.00,,---,0.00,0.00,VWS V14.00,2013-07-12 09:41:00,
2013-07-12 02:46:00,61.6,59.6,29.86,West,261,0.0,0.0,93,0.00,,---,0.00,0.00,VWS V14.00,2013-07-12 09:46:00,
2013-07-12 02:51:00,61.6,59.9,29.86,West,261,0.0,0.0,94,0.00,,---,0.00,0.00,VWS V14.00,2013-07-12 09:51:00,
2013-07-12 02:56:00,61.6,59.9,29.86,West,261,0.0,0.0,94,0.00,,---,0.00,0.00,VWS V14.00,2013-07-12 09:56:00,
2013-07-12 03:01:00,61.6,59.6,29.85,West,261,0.0,0.0,93,0.00,,---,0.00,0.00,VWS V14.00,2013-07-12 10:01:00,
2013-07-12 03:07:00,61.5,59.5,29.85,West,261,0.0,0.0,93,0.00,,---,0.00,0.00,VWS V14.00,2013-07-12 10:07:00,
2013-07-12 03:12:00,61.5,59.8,29.85,West,261,0.0,0.0,94,0.00,,---,0.00,0.00,VWS V14.00,2013-07-12 10:12:00,
2013-07-12 03:17:00,61.6,59.9,29.86,West,261,0.0,0.0,94,0.00,,---,0.00,0.00,VWS V14.00,2013-07-12 10:17:00,
2013-07-12 03:22:00,61.6,59.9,29.86,West,261,0.0,0.0,94,0.00,,---,0.00,0.00,VWS V14.00,2013-07-12 10:22:00,
2013-07-12 03:27:00,61.6,59.9,29.86,West,261,0.0,0.0,94,0.00,,---,0.00,0.00,VWS V14.00,2013-07-12 10:27:00,
2013-07-12 03:32:00,61.5,59.5,29.86,West,261,0.0,0.0,93,0.00,,---,0.00,0.00,VWS V14.00,2013-07-12 10:32:00,
2013-07-12 03:37:00,61.5,59.8,29.86,West,261,0.0,0.0,94,0.00,,---,0.00,0.00,VWS V14.00,2013-07-12 10:37:00,
2013-07-12 03:42:00,61.6,59.9,29.86,West,261,0.0,0.0,94,0.00,,---,0.00,0.00,VWS V14.00,2013-07-12 10:42:00,
2013-07-12 03:47:00,61.6,59.9,29.86,West,261,0.0,0.0,94,0.00,,---,0.00,0.00,VWS V14.00,2013-07-12 10:47:00,
2013-07-12 03:52:00,61.6,59.9,29.86,West,261,0.0,0.0,94,0.00,,---,0.00,0.00,VWS V14.00,2013-07-12 10:52:00,
2013-07-12 03:57:00,61.6,59.9,29.86,West,261,0.0,0.0,94,0.00,,---,0.00,0.00,VWS V14.00,2013-07-12 10:57:00,
2013-07-12 04:02:00,61.5,59.8,29.86,West,261,0.0,0.0,94,0.00,,---,0.00,0.00,VWS V14.00,2013-07-12 11:02:00,
2013-07-12 04:07:00,61.5,59.8,29.86,West,261,0.0,0.0,94,0.00,,---,0.00,0.00,VWS V14.00,2013-07-12 11:07:00,
2013-07-12 04:12:00,61.5,59.8,29.86,West,261,0.0,0.0,94,0.00,,---,0.00,0.00,VWS V14.00,2013-07-12 11:12:00,
2013-07-12 04:17:00,61.5,59.8,29.86,West,261,0.0,0.0,94,0.00,,---,0.00,0.00,VWS V14.00,2013-07-12 11:17:00,
2013-07-12 04:22:00,61.5,59.8,29.86,West,261,0.0,0.0,94,0.00,,---,0.00,0.00,VWS V14.00,2013-07-12 11:22:00,
2013-07-12 04:27:00,61.3,59.6,29.86,West,261,0.0,0.0,94,0.00,,---,0.00,0.00,VWS V14.00,2013-07-12 11:27:00,
2013-07-12 04:32:00,61.2,59.5,29.86,West,261,0.0,0.0,94,0.00,,---,0.00,0.00,VWS V14.00,2013-07-12 11:32:00,
2013-07-12 04:37:00,61.3,59.6,29.86,West,261,0.0,0.0,94,0.00,,---,0.00,0.00,VWS V14.00,2013-07-12 11:37:00,
2013-07-12 04:42:00,61.3,59.6,29.86,West,261,0.0,0.0,94,0.00,,---,0.00,0.00,VWS V14.00,2013-07-12 11:42:00,
2013-07-12 04:47:00,61.3,59.6,29.86,West,261,0.0,0.0,94,0.00,,---,0.00,0.00,VWS V14.00,2013-07-12 11:47:00,
2013-07-12 04:52:00,61.3,59.6,29.86,West,261,0.0,0.0,94,0.00,,---,0.00,0.00,VWS V14.00,2013-07-12 11:52:00,
2013-07-12 04:57:00,61.2,59.5,29.86,West,261,0.0,0.0,94,0.00,,---,0.00,0.00,VWS V14.00,2013-07-12 11:57:00,
2013-07-12 05:02:00,61.2,59.5,29.86,West,261,0.0,0.0,94,0.00,,---,0.00,0.00,VWS V14.00,2013-07-12 12:02:00,
2013-07-12 05:07:00,61.2,59.5,29.86,West,261,0.0,0.0,94,0.00,,---,0.00,0.00,VWS V14.00,2013-07-12 12:07:00,
2013-07-12 05:12:00,61.2,59.5,29.86,West,261,0.0,0.0,94,0.00,,---,0.00,0.00,VWS V14.00,2013-07-12 12:12:00,
2013-07-12 05:17:00,61.2,59.5,29.86,West,261,0.0,0.0,94,0.00,,---,0.00,0.00,VWS V14.00,2013-07-12 12:17:00,
2013-07-12 05:22:00,61.3,59.6,29.86,West,261,0.0,0.0,94,0.00,,---,0.00,0.00,VWS V14.00,2013-07-12 12:22:00,
2013-07-12 05:27:00,61.3,59.6,29.86,West,261,0.0,0.0,94,0.00,,---,0.00,0.00,VWS V14.00,2013-07-12 12:27:00,
2013-07-12 05:32:00,61.8,60.4,29.87,West,261,0.0,0.0,95,0.00,,---,0.00,0.00,VWS V14.00,2013-07-12 12:32:00,
2013-07-12 05:37:00,62.0,60.6,29.87,West,261,0.0,0.0,95,0.00,,---,0.00,0.00,VWS V14.00,2013-07-12 12:37:00,
2013-07-12 05:42:00,62.1,60.7,29.87,West,261,0.0,0.0,95,0.00,,---,0.00,0.00,VWS V14.00,2013-07-12 12:42:00,
2013-07-12 05:47:00,62.3,60.8,29.87,West,261,0.0,0.0,95,0.00,,---,0.00,0.00,VWS V14.00,2013-07-12 12:47:00,
2013-07-12 05:52:00,62.3,60.8,29.87,West,261,0.0,0.0,95,0.00,,---,0.00,0.00,VWS V14.00,2013-07-12 12:52:00,
2013-07-12 05:57:00,62.3,60.8,29.87,West,261,0.0,0.0,95,0.00,,---,0.00,0.00,VWS V14.00,2013-07-12 12:57:00,
2013-07-12 06:02:00,62.3,60.8,29.86,West,261,0.0,0.0,95,0.00,,---,0.00,5.00,VWS V14.00,2013-07-12 13:02:00,
2013-07-12 06:07:00,62.3,60.8,29.86,West,261,0.0,0.0,95,0.00,,---,0.00,9.00,VWS V14.00,2013-07-12 13:07:00,
2013-07-12 06:12:00,62.3,60.8,29.86,West,261,0.0,0.0,95,0.00,,---,0.00,12.00,VWS V14.00,2013-07-12 13:12:00,
2013-07-12 06:17:00,62.3,60.8,29.87,West,261,0.0,0.0,95,0.00,,---,0.00,16.00,VWS V14.00,2013-07-12 13:17:00,
2013-07-12 06:22:00,62.4,61.0,29.87,West,261,0.0,0.0,95,0.00,,---,0.00,19.00,VWS V14.00,2013-07-12 13:22:00,
2013-07-12 06:28:00,62.4,61.0,29.87,West,261,0.0,0.0,95,0.00,,---,0.00,25.00,VWS V14.00,2013-07-12 13:28:00,
2013-07-12 06:33:00,62.6,61.2,29.87,West,261,0.0,0.0,95,0.00,,---,0.00,39.00,VWS V14.00,2013-07-12 13:33:00,
2013-07-12 06:38:00,62.9,61.5,29.87,West,261,0.0,0.0,95,0.00,,---,0.00,44.00,VWS V14.00,2013-07-12 13:38:00,
2013-07-12 06:43:00,63.1,61.7,29.87,West,261,0.0,0.0,95,0.00,,---,0.00,35.00,VWS V14.00,2013-07-12 13:43:00,
2013-07-12 06:48:00,63.4,62.0,29.87,West,261,0.0,0.0,95,0.00,,---,0.00,37.00,VWS V14.00,2013-07-12 13:48:00,
2013-07-12 06:53:00,63.7,62.2,29.87,West,261,0.0,0.0,95,0.00,,---,0.00,40.00,VWS V14.00,2013-07-12 13:53:00,
2013-07-12 06:58:00,63.9,62.4,29.87,West,261,0.0,0.0,95,0.00,,---,0.00,51.00,VWS V14.00,2013-07-12 13:58:00,
2013-07-12 07:03:00,64.2,62.7,29.87,West,261,0.0,0.0,95,0.00,,---,0.00,84.00,VWS V14.00,2013-07-12 14:03:00,
2013-07-12 07:08:00,64.5,63.3,29.87,West,261,0.0,0.0,96,0.00,,---,0.00,83.00,VWS V14.00,2013-07-12 14:08:00,
2013-07-12 07:13:00,64.8,63.6,29.87,West,261,0.0,0.0,96,0.00,,---,0.00,58.00,VWS V14.00,2013-07-12 14:13:00,
2013-07-12 07:18:00,65.0,63.5,29.87,West,261,0.0,0.0,95,0.00,,---,0.00,60.00,VWS V14.00,2013-07-12 14:18:00,
2013-07-12 07:23:00,65.2,63.7,29.87,West,261,0.0,0.0,95,0.00,,---,0.00,69.00,VWS V14.00,2013-07-12 14:23:00,
2013-07-12 07:28:00,65.3,63.8,29.87,West,261,0.0,0.0,95,0.00,,---,0.00,109.00,VWS V14.00,2013-07-12 14:28:00,
2013-07-12 07:33:00,65.6,64.1,29.88,West,261,0.0,0.0,95,0.00,,---,0.00,128.00,VWS V14.00,2013-07-12 14:33:00,
2013-07-12 07:38:00,66.0,64.5,29.88,West,261,0.0,0.0,95,0.00,,---,0.00,134.00,VWS V14.00,2013-07-12 14:38:00,
2013-07-12 07:43:00,66.0,64.5,29.88,West,261,0.0,0.0,95,0.00,,---,0.00,76.00,VWS V14.00,2013-07-12 14:43:00,
2013-07-12 07:48:00,66.3,64.8,29.88,West,261,0.0,0.0,95,0.00,,---,0.00,134.00,VWS V14.00,2013-07-12 14:48:00,
2013-07-12 07:53:00,66.4,64.9,29.88,West,261,0.0,0.0,95,0.00,,---,0.00,151.00,VWS V14.00,2013-07-12 14:53:00,
2013-07-12 07:58:00,66.6,65.1,29.88,West,261,0.0,0.0,95,0.00,,---,0.00,151.00,VWS V14.00,2013-07-12 14:58:00,
2013-07-12 08:03:00,66.8,65.3,29.88,West,261,0.0,0.0,95,0.00,,---,0.00,132.00,VWS V14.00,2013-07-12 15:03:00,
2013-07-12 08:08:00,66.9,65.1,29.88,West,261,0.0,0.0,94,0.00,,---,0.00,123.00,VWS V14.00,2013-07-12 15:08:00,
2013-07-12 08:13:00,66.9,65.1,29.88,West,261,0.0,0.0,94,0.00,,---,0.00,193.00,VWS V14.00,2013-07-12 15:13:00,
2013-07-12 08:18:00,67.3,65.5,29.88,ESE,116,0.0,0.0,94,0.00,,---,0.00,204.00,VWS V14.00,2013-07-12 15:18:00,
2013-07-12 08:23:00,67.4,65.6,29.88,ESE,110,0.0,0.0,94,0.00,,---,0.00,265.00,VWS V14.00,2013-07-12 15:23:00,
2013-07-12 08:28:00,67.8,65.7,29.88,ESE,110,0.0,0.0,93,0.00,,---,0.00,236.00,VWS V14.00,2013-07-12 15:28:00,
2013-07-12 08:33:00,67.8,65.4,29.88,ESE,112,0.0,0.0,92,0.00,,---,0.00,262.00,VWS V14.00,2013-07-12 15:33:00,
2013-07-12 08:38:00,67.9,65.5,29.88,ESE,115,0.0,0.0,92,0.00,,---,0.00,352.00,VWS V14.00,2013-07-12 15:38:00,
2013-07-12 08:43:00,68.1,65.4,29.88,ESE,114,0.0,1.0,91,0.00,,---,0.00,374.00,VWS V14.00,2013-07-12 15:43:00,
2013-07-12 08:48:00,68.3,65.3,29.88,East,84,0.0,1.0,90,0.00,,---,0.00,392.00,VWS V14.00,2013-07-12 15:48:00,
2013-07-12 08:53:00,68.4,65.0,29.88,East,84,0.0,1.0,89,0.00,,---,0.00,450.00,VWS V14.00,2013-07-12 15:53:00,
2013-07-12 08:58:00,68.6,64.9,29.88,East,85,3.0,4.0,88,0.00,,---,0.00,336.00,VWS V14.00,2013-07-12 15:58:00,
2013-07-12 09:03:00,68.8,65.1,29.88,East,91,1.0,3.0,88,0.00,,---,0.00,422.00,VWS V14.00,2013-07-12 16:03:00,
2013-07-12 09:08:00,68.9,64.9,29.88,East,90,0.0,5.0,87,0.00,,---,0.00,512.00,VWS V14.00,2013-07-12 16:08:00,
2013-07-12 09:13:00,69.3,65.3,29.88,East,90,0.0,0.0,87,0.00,,---,0.00,501.00,VWS V14.00,2013-07-12 16:13:00,
2013-07-12 09:18:00,69.8,65.4,29.88,East,90,0.0,0.0,86,0.00,,---,0.00,571.00,VWS V14.00,2013-07-12 16:18:00,
2013-07-12 09:23:00,70.1,65.4,29.88,East,90,2.0,3.0,85,0.00,,---,0.00,566.00,VWS V14.00,2013-07-12 16:23:00,
2013-07-12 09:28:00,70.3,65.2,29.88,East,94,1.0,3.0,84,0.00,,---,0.00,584.00,VWS V14.00,2013-07-12 16:28:00,
2013-07-12 09:33:00,70.4,65.0,29.89,East,100,0.0,3.0,83,0.00,,---,0.00,601.00,VWS V14.00,2013-07-12 16:33:00,
2013-07-12 09:38:00,70.6,65.2,29.89,East,100,0.0,0.0,83,0.00,,---,0.00,606.00,VWS V14.00,2013-07-12 16:38:00,
2013-07-12 09:43:00,70.8,65.0,29.89,East,100,0.0,1.0,82,0.00,,---,0.00,622.00,VWS V14.00,2013-07-12 16:43:00,
2013-07-12 09:48:00,70.9,65.1,29.88,East,100,1.0,4.0,82,0.00,,---,0.00,621.00,VWS V14.00,2013-07-12 16:48:00,
2013-07-12 09:53:00,70.9,64.8,29.88,ESE,106,0.0,1.0,81,0.00,,---,0.00,636.00,VWS V14.00,2013-07-12 16:53:00,
2013-07-12 09:58:00,71.3,65.5,29.88,ESE,106,0.0,0.0,82,0.00,,---,0.00,654.00,VWS V14.00,2013-07-12 16:58:00,
2013-07-12 10:03:00,71.5,65.4,29.88,ESE,106,0.0,0.0,81,0.00,,---,0.00,664.00,VWS V14.00,2013-07-12 17:03:00,
2013-07-12 10:08:00,72.0,65.9,29.88,ESE,106,0.0,4.0,81,0.00,,---,0.00,684.00,VWS V14.00,2013-07-12 17:08:00,
2013-07-12 10:13:00,72.7,66.2,29.88,East,95,2.0,4.0,80,0.00,,---,0.00,700.00,VWS V14.00,2013-07-12 17:13:00,
2013-07-12 10:18:00,73.2,65.9,29.89,East,93,1.0,2.0,78,0.00,,---,0.00,717.00,VWS V14.00,2013-07-12 17:18:00,
2013-07-12 10:24:00,73.7,65.7,29.89,East,83,3.0,4.0,76,0.00,,---,0.00,721.00,VWS V14.00,2013-07-12 17:24:00,
2013-07-12 10:29:00,74.0,65.6,29.89,East,84,3.0,4.0,75,0.00,,---,0.00,737.00,VWS V14.00,2013-07-12 17:29:00,
2013-07-12 10:34:00,74.0,65.2,29.89,East,84,1.0,2.0,74,0.00,,---,0.00,745.00,VWS V14.00,2013-07-12 17:34:00,
2013-07-12 10:39:00,73.3,64.1,29.89,East,91,1.0,3.0,73,0.00,,---,0.00,756.00,VWS V14.00,2013-07-12 17:39:00,
2013-07-12 10:44:00,72.3,64.7,29.89,SSW,193,0.0,0.0,77,0.00,,---,0.00,766.00,VWS V14.00,2013-07-12 17:44:00,
2013-07-12 10:50:00,72.7,65.1,29.88,East,98,0.0,1.0,77,0.00,,---,0.00,772.00,VWS V14.00,2013-07-12 17:50:00,
2013-07-12 10:55:00,73.5,65.5,29.88,East,99,0.0,0.0,76,0.00,,---,0.00,782.00,VWS V14.00,2013-07-12 17:55:00,
2013-07-12 11:00:00,73.9,65.1,29.88,ESE,106,1.0,3.0,74,0.00,,---,0.00,789.00,VWS V14.00,2013-07-12 18:00:00,
2013-07-12 11:05:00,73.9,65.1,29.88,ESE,111,2.0,2.0,74,0.00,,---,0.00,796.00,VWS V14.00,2013-07-12 18:05:00,
2013-07-12 11:10:00,74.6,65.8,29.88,East,101,0.0,3.0,74,0.00,,---,0.00,807.00,VWS V14.00,2013-07-12 18:10:00,
2013-07-12 11:15:00,75.1,65.5,29.88,ESE,103,3.0,3.0,72,0.00,,---,0.00,814.00,VWS V14.00,2013-07-12 18:15:00,
2013-07-12 11:20:00,75.6,65.1,29.88,ESE,106,0.0,3.0,70,0.00,,---,0.00,835.00,VWS V14.00,2013-07-12 18:20:00,
2013-07-12 11:26:00,74.6,64.6,29.88,SSW,192,1.0,3.0,71,0.00,,---,0.00,645.00,VWS V14.00,2013-07-12 18:26:00,
2013-07-12 11:31:00,73.9,64.7,29.88,SSW,203,0.0,2.0,73,0.00,,---,0.00,679.00,VWS V14.00,2013-07-12 18:31:00,
2013-07-12 11:36:00,74.4,65.2,29.88,SSW,196,0.0,2.0,73,0.00,,---,0.00,846.00,VWS V14.00,2013-07-12 18:36:00,
2013-07-12 11:41:00,74.9,64.9,29.88,SSW,196,0.0,0.0,71,0.00,,---,0.00,838.00,VWS V14.00,2013-07-12 18:41:00,
2013-07-12 11:46:00,74.9,64.5,29.88,WSW,240,0.0,5.0,70,0.00,,---,0.00,853.00,VWS V14.00,2013-07-12 18:46:00,
2013-07-12 11:51:00,74.0,64.4,29.88,SW,220,1.0,10.0,72,0.00,,---,0.00,847.00,VWS V14.00,2013-07-12 18:51:00,
2013-07-12 11:56:00,73.2,64.4,29.88,West,259,1.0,5.0,74,0.00,,---,0.00,870.00,VWS V14.00,2013-07-12 18:56:00,
2013-07-12 12:01:00,72.8,64.0,29.88,West,260,2.0,9.0,74,0.00,,---,0.00,882.00,VWS V14.00,2013-07-12 19:01:00,
2013-07-12 12:06:00,72.5,64.5,29.88,WSW,256,2.0,5.0,76,0.00,,---,0.00,803.00,VWS V14.00,2013-07-12 19:06:00,
2013-07-12 12:11:00,72.3,64.3,29.88,WSW,237,0.0,5.0,76,0.00,,---,0.00,617.00,VWS V14.00,2013-07-12 19:11:00,
2013-07-12 12:16:00,72.0,64.0,29.88,SSE,157,3.0,5.0,76,0.00,,---,0.00,995.00,VWS V14.00,2013-07-12 19:16:00,
2013-07-12 12:22:00,72.0,64.0,29.88,WSW,253,2.0,3.0,76,0.00,,---,0.00,1020.00,VWS V14.00,2013-07-12 19:22:00,
2013-07-12 12:27:00,72.5,64.5,29.88,WSW,249,0.0,2.0,76,0.00,,---,0.00,1130.00,VWS V14.00,2013-07-12 19:27:00,
2013-07-12 12:32:00,73.2,64.4,29.88,South,172,3.0,5.0,74,0.00,,---,0.00,1136.00,VWS V14.00,2013-07-12 19:32:00,
2013-07-12 12:37:00,73.3,64.1,29.88,WSW,257,3.0,6.0,73,0.00,,---,0.00,624.00,VWS V14.00,2013-07-12 19:37:00,
2013-07-12 12:42:00,73.0,64.2,29.88,West,260,6.0,6.0,74,0.00,,---,0.00,575.00,VWS V14.00,2013-07-12 19:42:00,
2013-07-12 12:47:00,72.7,63.9,29.88,WSW,244,1.0,3.0,74,0.00,,---,0.00,1056.00,VWS V14.00,2013-07-12 19:47:00,
2013-07-12 12:52:00,72.8,64.4,29.88,West,276,5.0,6.0,75,0.00,,---,0.00,1004.00,VWS V14.00,2013-07-12 19:52:00,
2013-07-12 12:58:00,73.0,64.2,29.88,West,260,2.0,7.0,74,0.00,,---,0.00,965.00,VWS V14.00,2013-07-12 19:58:00,
2013-07-12 13:03:00,72.3,63.6,29.88,WSW,247,3.0,9.0,74,0.00,,---,0.00,1039.00,VWS V14.00,2013-07-12 20:03:00,
2013-07-12 13:08:00,71.8,63.8,29.88,West,272,2.0,6.0,76,0.00,,---,0.00,879.00,VWS V14.00,2013-07-12 20:08:00,
2013-07-12 13:13:00,72.0,63.7,29.88,West,278,6.0,11.0,75,0.00,,---,0.00,900.00,VWS V14.00,2013-07-12 20:13:00,
2013-07-12 13:18:00,72.3,64.3,29.88,WSW,252,4.0,5.0,76,0.00,,---,0.00,925.00,VWS V14.00,2013-07-12 20:18:00,
2013-07-12 13:23:00,72.1,63.4,29.88,West,264,5.0,10.0,74,0.00,,---,0.00,918.00,VWS V14.00,2013-07-12 20:23:00,
2013-07-12 13:29:00,72.5,64.1,29.88,WSW,245,7.0,7.0,75,0.00,,---,0.00,923.00,VWS V14.00,2013-07-12 20:29:00,
2013-07-12 13:34:00,72.3,63.9,29.87,WSW,244,6.0,7.0,75,0.00,,---,0.00,933.00,VWS V14.00,2013-07-12 20:34:00,
2013-07-12 13:40:00,71.8,63.5,29.87,WSW,253,9.0,11.0,75,0.00,,---,0.00,867.00,VWS V14.00,2013-07-12 20:40:00,
2013-07-12 13:45:00,71.6,63.6,29.87,SW,230,7.0,11.0,76,0.00,,---,0.00,965.00,VWS V14.00,2013-07-12 20:45:00,
2013-07-12 13:50:00,71.6,63.3,29.87,SSW,208,4.0,13.0,75,0.00,,---,0.00,946.00,VWS V14.00,2013-07-12 20:50:00,
2013-07-12 13:56:00,71.8,63.8,29.87,West,259,3.0,7.0,76,0.00,,---,0.00,944.00,VWS V14.00,2013-07-12 20:56:00,
2013-07-12 14:01:00,71.6,62.9,29.87,West,268,12.0,13.0,74,0.00,,---,0.00,919.00,VWS V14.00,2013-07-12 21:01:00,
2013-07-12 14:07:00,70.9,63.0,29.87,WSW,255,2.0,12.0,76,0.00,,---,0.00,912.00,VWS V14.00,2013-07-12 21:07:00,
2013-07-12 14:12:00,70.4,62.8,29.87,WNW,289,12.0,14.0,77,0.00,,---,0.00,617.00,VWS V14.00,2013-07-12 21:12:00,
2013-07-12 14:17:00,70.6,63.0,29.86,West,276,6.0,10.0,77,0.00,,---,0.00,882.00,VWS V14.00,2013-07-12 21:17:00,
2013-07-12 14:22:00,70.4,62.8,29.86,WNW,301,3.0,7.0,77,0.00,,---,0.00,865.00,VWS V14.00,2013-07-12 21:22:00,
2013-07-12 14:27:00,70.6,63.0,29.86,WNW,291,4.0,13.0,77,0.00,,---,0.00,872.00,VWS V14.00,2013-07-12 21:27:00,
2013-07-12 14:32:00,70.4,62.8,29.86,WNW,292,6.0,11.0,77,0.00,,---,0.00,826.00,VWS V14.00,2013-07-12 21:32:00,
2013-07-12 14:37:00,70.8,63.2,29.86,SW,236,0.0,10.0,77,0.00,,---,0.00,837.00,VWS V14.00,2013-07-12 21:37:00,
2013-07-12 14:42:00,70.3,62.8,29.86,West,272,6.0,10.0,77,0.00,,---,0.00,849.00,VWS V14.00,2013-07-12 21:42:00,
2013-07-12 14:48:00,70.1,62.6,29.86,West,275,5.0,13.0,77,0.00,,---,0.00,835.00,VWS V14.00,2013-07-12 21:48:00,
2013-07-12 14:53:00,70.4,62.5,29.86,WNW,288,13.0,14.0,76,0.00,,---,0.00,821.00,VWS V14.00,2013-07-12 21:53:00,
2013-07-12 14:58:00,70.3,62.4,29.86,WSW,246,13.0,16.0,76,0.00,,---,0.00,819.00,VWS V14.00,2013-07-12 21:58:00,
2013-07-12 15:03:00,69.9,62.0,29.86,SW,234,4.0,16.0,76,0.00,,---,0.00,796.00,VWS V14.00,2013-07-12 22:03:00,
2013-07-12 15:09:00,69.4,61.9,29.86,WSW,253,7.0,15.0,77,0.00,,---,0.00,798.00,VWS V14.00,2013-07-12 22:09:00,
2013-07-12 15:14:00,69.4,61.5,29.86,WSW,248,8.0,18.0,76,0.00,,---,0.00,838.00,VWS V14.00,2013-07-12 22:14:00,
2013-07-12 15:19:00,69.8,61.9,29.85,West,265,7.0,10.0,76,0.00,,---,0.00,791.00,VWS V14.00,2013-07-12 22:19:00,
2013-07-12 15:24:00,69.4,61.5,29.85,West,267,5.0,16.0,76,0.00,,---,0.00,786.00,VWS V14.00,2013-07-12 22:24:00,
2013-07-12 15:29:00,69.4,61.9,29.85,West,278,15.0,15.0,77,0.00,,---,0.00,779.00,VWS V14.00,2013-07-12 22:29:00,
2013-07-12 15:34:00,69.3,61.8,29.85,WSW,251,5.0,10.0,77,0.00,,---,0.00,756.00,VWS V14.00,2013-07-12 22:34:00,
2013-07-12 15:39:00,69.4,61.9,29.85,West,262,7.0,11.0,77,0.00,,---,0.00,738.00,VWS V14.00,2013-07-12 22:39:00,
2013-07-12 15:44:00,69.3,61.8,29.85,WSW,245,12.0,13.0,77,0.00,,---,0.00,712.00,VWS V14.00,2013-07-12 22:44:00,
2013-07-12 15:49:00,68.6,61.8,29.85,West,274,16.0,18.0,79,0.00,,---,0.00,698.00,VWS V14.00,2013-07-12 22:49:00,
2013-07-12 15:54:00,68.3,61.9,29.85,West,264,12.0,15.0,80,0.00,,---,0.00,684.00,VWS V14.00,2013-07-12 22:54:00,
2013-07-12 15:59:00,67.9,61.9,29.85,WNW,282,14.0,16.0,81,0.00,,---,0.00,677.00,VWS V14.00,2013-07-12 22:59:00,
2013-07-12 16:04:00,67.6,61.6,29.84,West,278,13.0,17.0,81,0.00,,---,0.00,666.00,VWS V14.00,2013-07-12 23:04:00,
2013-07-12 16:10:00,66.9,61.2,29.84,WNW,301,10.0,20.0,82,0.00,,---,0.00,650.00,VWS V14.00,2013-07-12 23:10:00,
2013-07-12 16:15:00,66.4,61.1,29.84,West,266,11.0,19.0,83,0.00,,---,0.00,638.00,VWS V14.00,2013-07-12 23:15:00,
2013-07-12 16:20:00,66.4,61.1,29.84,West,275,13.0,20.0,83,0.00,,---,0.00,622.00,VWS V14.00,2013-07-12 23:20:00,
2013-07-12 16:25:00,66.9,61.6,29.84,WNW,286,9.0,13.0,83,0.00,,---,0.00,606.00,VWS V14.00,2013-07-12 23:25:00,
2013-07-12 16:30:00,67.4,61.4,29.84,West,268,10.0,15.0,81,0.00,,---,0.00,592.00,VWS V14.00,2013-07-12 23:30:00,
2013-07-12 16:35:00,68.1,61.7,29.83,WNW,284,4.0,14.0,80,0.00,,---,0.00,575.00,VWS V14.00,2013-07-12 23:35:00,
2013-07-12 16:41:00,67.8,61.4,29.83,WNW,301,7.0,14.0,80,0.00,,---,0.00,563.00,VWS V14.00,2013-07-12 23:41:00,
2013-07-12 16:46:00,67.6,61.2,29.83,West,272,15.0,15.0,80,0.00,,---,0.00,548.00,VWS V14.00,2013-07-12 23:46:00,
2013-07-12 16:51:00,67.3,61.3,29.83,West,272,15.0,17.0,81,0.00,,---,0.00,534.00,VWS V14.00,2013-07-12 23:51:00,
2013-07-12 16:56:00,67.6,61.6,29.83,West,264,7.0,7.0,81,0.00,,---,0.00,519.00,VWS V14.00,2013-07-12 23:56:00,
2013-07-12 17:01:00,67.3,61.3,29.83,West,269,10.0,16.0,81,0.00,,---,0.00,513.00,VWS V14.00,2013-07-13 00:01:00,
2013-07-12 17:06:00,66.9,61.2,29.83,West,268,16.0,18.0,82,0.00,,---,0.00,504.00,VWS V14.00,2013-07-13 00:06:00,
2013-07-12 17:11:00,66.6,60.9,29.83,West,272,16.0,16.0,82,0.00,,---,0.00,483.00,VWS V14.00,2013-07-13 00:11:00,
2013-07-12 17:16:00,66.8,61.1,29.83,West,274,9.0,14.0,82,0.00,,---,0.00,478.00,VWS V14.00,2013-07-13 00:16:00,
2013-07-12 17:21:00,66.8,61.1,29.83,West,266,11.0,14.0,82,0.00,,---,0.00,478.00,VWS V14.00,2013-07-13 00:21:00,
2013-07-12 17:26:00,66.8,61.1,29.83,WNW,299,11.0,15.0,82,0.00,,---,0.00,483.00,VWS V14.00,2013-07-13 00:26:00,
2013-07-12 17:32:00,66.0,61.0,29.82,West,261,7.0,15.0,84,0.00,,---,0.00,454.00,VWS V14.00,2013-07-13 00:32:00,
2013-07-12 17:37:00,65.5,60.9,29.82,WNW,286,15.0,18.0,85,0.00,,---,0.00,468.00,VWS V14.00,2013-07-13 00:37:00,
2013-07-12 17:42:00,65.0,60.7,29.82,WNW,288,12.0,18.0,86,0.00,,---,0.00,276.00,VWS V14.00,2013-07-13 00:42:00,
2013-07-12 17:47:00,64.3,60.3,29.82,WSW,251,4.0,15.0,87,0.00,,---,0.00,269.00,VWS V14.00,2013-07-13 00:47:00,
2013-07-12 17:52:00,63.9,60.6,29.82,WSW,243,6.0,11.0,89,0.00,,---,0.00,139.00,VWS V14.00,2013-07-13 00:52:00,
2013-07-12 17:57:00,63.2,60.2,29.82,WSW,250,13.0,15.0,90,0.00,,---,0.00,251.00,VWS V14.00,2013-07-13 00:57:00,
2013-07-12 18:02:00,62.9,60.5,29.82,West,280,11.0,18.0,92,0.00,,---,0.00,86.00,VWS V14.00,2013-07-13 01:02:00,
2013-07-12 18:07:00,62.6,60.5,29.82,West,267,17.0,17.0,93,0.00,,---,0.00,116.00,VWS V14.00,2013-07-13 01:07:00,
2013-07-12 18:12:00,62.4,60.7,29.82,West,261,20.0,21.0,94,0.00,,---,0.00,148.00,VWS V14.00,2013-07-13 01:12:00,
2013-07-12 18:18:00,62.3,60.6,29.82,West,259,13.0,19.0,94,0.00,,---,0.00,148.00,VWS V14.00,2013-07-13 01:18:00,
2013-07-12 18:23:00,62.3,60.8,29.82,WNW,289,14.0,15.0,95,0.00,,---,0.00,141.00,VWS V14.00,2013-07-13 01:23:00,
2013-07-12 18:28:00,62.3,60.8,29.82,WNW,286,4.0,10.0,95,0.00,,---,0.00,118.00,VWS V14.00,2013-07-13 01:28:00,
2013-07-12 18:33:00,62.6,61.2,29.82,WNW,287,13.0,13.0,95,0.00,,---,0.00,109.00,VWS V14.00,2013-07-13 01:33:00,
2013-07-12 18:38:00,62.4,61.0,29.82,West,272,12.0,16.0,95,0.00,,---,0.00,97.00,VWS V14.00,2013-07-13 01:38:00,
2013-07-12 18:43:00,62.1,60.7,29.82,West,277,12.0,17.0,95,0.00,,---,0.00,72.00,VWS V14.00,2013-07-13 01:43:00,
2013-07-12 18:48:00,61.8,60.4,29.82,West,277,4.0,20.0,95,0.00,,---,0.00,67.00,VWS V14.00,2013-07-13 01:48:00,
2013-07-12 18:53:00,61.8,60.4,29.82,WNW,294,5.0,18.0,95,0.00,,---,0.00,84.00,VWS V14.00,2013-07-13 01:53:00,
2013-07-12 18:58:00,61.8,60.7,29.82,West,263,12.0,16.0,96,0.00,,---,0.00,81.00,VWS V14.00,2013-07-13 01:58:00,
2013-07-12 19:03:00,61.6,60.5,29.81,West,259,13.0,16.0,96,0.00,,---,0.00,58.00,VWS V14.00,2013-07-13 02:03:00,
2013-07-12 19:09:00,61.5,60.3,29.81,West,275,9.0,15.0,96,0.00,,---,0.00,67.00,VWS V14.00,2013-07-13 02:09:00,
2013-07-12 19:14:00,61.3,60.2,29.81,West,259,15.0,15.0,96,0.00,,---,0.00,47.00,VWS V14.00,2013-07-13 02:14:00,
2013-07-12 19:19:00,61.3,60.2,29.82,WNW,286,7.0,13.0,96,0.00,,---,0.00,39.00,VWS V14.00,2013-07-13 02:19:00,
2013-07-12 19:24:00,61.3,60.2,29.82,West,280,9.0,11.0,96,0.00,,---,0.00,39.00,VWS V14.00,2013-07-13 02:24:00,
2013-07-12 19:29:00,61.3,60.2,29.82,WSW,249,5.0,14.0,96,0.00,,---,0.00,33.00,VWS V14.00,2013-07-13 02:29:00,
2013-07-12 19:34:00,61.3,60.2,29.82,West,272,0.0,11.0,96,0.00,,---,0.00,25.00,VWS V14.00,2013-07-13 02:34:00,
2013-07-12 19:39:00,61.3,60.2,29.82,NW,312,0.0,4.0,96,0.00,,---,0.00,21.00,VWS V14.00,2013-07-13 02:39:00,
2013-07-12 19:44:00,61.2,60.0,29.82,NW,305,0.0,4.0,96,0.00,,---,0.00,16.00,VWS V14.00,2013-07-13 02:44:00,
2013-07-12 19:50:00,61.2,60.0,29.82,West,276,6.0,6.0,96,0.00,,---,0.00,14.00,VWS V14.00,2013-07-13 02:50:00,
2013-07-12 19:55:00,61.3,60.2,29.82,West,280,3.0,11.0,96,0.00,,---,0.00,12.00,VWS V14.00,2013-07-13 02:55:00,
2013-07-12 20:00:00,61.3,60.2,29.82,West,272,5.0,7.0,96,0.00,,---,0.00,9.00,VWS V14.00,2013-07-13 03:00:00,
2013-07-12 20:05:00,61.2,60.0,29.82,WSW,258,5.0,11.0,96,0.00,,---,0.00,7.00,VWS V14.00,2013-07-13 03:05:00,
2013-07-12 20:10:00,61.2,60.0,29.82,WNW,283,0.0,8.0,96,0.00,,---,0.00,5.00,VWS V14.00,2013-07-13 03:10:00,
2013-07-12 20:15:00,61.2,60.0,29.82,West,268,5.0,7.0,96,0.00,,---,0.00,0.00,VWS V14.00,2013-07-13 03:15:00,
2013-07-12 20:20:00,61.2,60.0,29.82,West,274,6.0,13.0,96,0.00,,---,0.00,0.00,VWS V14.00,2013-07-13 03:20:00,
2013-07-12 20:25:00,61.2,60.0,29.82,WNW,293,5.0,5.0,96,0.00,,---,0.00,0.00,VWS V14.00,2013-07-13 03:25:00,
2013-07-12 20:31:00,61.3,60.2,29.82,West,278,6.0,6.0,96,0.00,,---,0.00,0.00,VWS V14.00,2013-07-13 03:31:00,
2013-07-12 20:36:00,61.3,60.2,29.82,West,268,3.0,6.0,96,0.00,,---,0.00,0.00,VWS V14.00,2013-07-13 03:36:00,
2013-07-12 20:41:00,61.3,60.2,29.82,West,269,0.0,5.0,96,0.00,,---,0.00,0.00,VWS V14.00,2013-07-13 03:41:00,
2013-07-12 20:46:00,61.3,60.2,29.83,West,269,0.0,0.0,96,0.00,,---,0.00,0.00,VWS V14.00,2013-07-13 03:46:00,
2013-07-12 20:52:00,61.3,60.2,29.83,West,280,0.0,0.0,96,0.00,,---,0.00,0.00,VWS V14.00,2013-07-13 03:52:00,
2013-07-12 20:57:00,61.2,60.0,29.83,West,280,0.0,0.0,96,0.00,,---,0.00,0.00,VWS V14.00,2013-07-13 03:57:00,
2013-07-12 21:01:00,61.2,60.0,29.83,West,280,0.0,0.0,96,0.00,,---,0.00,0.00,VWS V14.00,2013-07-13 04:01:00,
2013-07-12 21:02:00,61.2,60.0,29.83,West,280,0.0,0.0,96,0.00,,---,0.00,0.00,VWS V14.00,2013-07-13 04:02:00,
2013-07-12 21:07:00,61.2,60.0,29.83,West,280,0.0,0.0,96,0.00,,---,0.00,0.00,VWS V14.00,2013-07-13 04:07:00,
2013-07-12 21:12:00,61.2,60.0,29.83,West,280,0.0,0.0,96,0.00,,---,0.00,0.00,VWS V14.00,2013-07-13 04:12:00,
2013-07-12 21:17:00,61.2,60.0,29.83,West,280,0.0,0.0,96,0.00,,---,0.00,0.00,VWS V14.00,2013-07-13 04:17:00,
2013-07-12 21:22:00,61.2,60.0,29.83,West,280,0.0,0.0,96,0.00,,---,0.00,0.00,VWS V14.00,2013-07-13 04:22:00,
2013-07-12 21:27:00,61.2,60.0,29.83,West,280,0.0,0.0,96,0.00,,---,0.00,0.00,VWS V14.00,2013-07-13 04:27:00,
2013-07-12 21:32:00,61.2,60.0,29.84,West,280,0.0,0.0,96,0.00,,---,0.00,0.00,VWS V14.00,2013-07-13 04:32:00,
2013-07-12 21:37:00,61.2,60.0,29.84,West,280,0.0,0.0,96,0.00,,---,0.00,0.00,VWS V14.00,2013-07-13 04:37:00,
2013-07-12 21:42:00,61.2,60.0,29.84,West,280,0.0,0.0,96,0.00,,---,0.00,0.00,VWS V14.00,2013-07-13 04:42:00,
2013-07-12 21:47:00,61.2,60.0,29.85,West,280,0.0,0.0,96,0.00,,---,0.00,0.00,VWS V14.00,2013-07-13 04:47:00,
2013-07-12 21:52:00,61.2,60.0,29.85,West,280,0.0,0.0,96,0.00,,---,0.00,0.00,VWS V14.00,2013-07-13 04:52:00,
2013-07-12 21:57:00,61.2,60.0,29.85,West,280,0.0,0.0,96,0.00,,---,0.00,0.00,VWS V14.00,2013-07-13 04:57:00,
2013-07-12 22:02:00,61.3,60.2,29.85,West,280,0.0,0.0,96,0.00,,---,0.00,0.00,VWS V14.00,2013-07-13 05:02:00,
2013-07-12 22:07:00,61.5,60.3,29.85,West,276,0.0,0.0,96,0.00,,---,0.00,0.00,VWS V14.00,2013-07-13 05:07:00,
2013-07-12 22:12:00,61.6,60.5,29.85,West,276,0.0,0.0,96,0.00,,---,0.00,0.00,VWS V14.00,2013-07-13 05:12:00,
2013-07-12 22:17:00,61.8,60.7,29.85,NE,47,0.0,0.0,96,0.00,,---,0.00,0.00,VWS V14.00,2013-07-13 05:17:00,
2013-07-12 22:22:00,62.0,60.8,29.85,NE,47,0.0,0.0,96,0.00,,---,0.00,0.00,VWS V14.00,2013-07-13 05:22:00,
2013-07-12 22:27:00,62.1,61.0,29.85,NE,47,0.0,0.0,96,0.00,,---,0.00,0.00,VWS V14.00,2013-07-13 05:27:00,
2013-07-12 22:32:00,62.1,61.0,29.85,NE,49,0.0,0.0,96,0.00,,---,0.00,0.00,VWS V14.00,2013-07-13 05:32:00,
2013-07-12 22:37:00,62.1,61.0,29.85,NE,49,0.0,0.0,96,0.00,,---,0.00,0.00,VWS V14.00,2013-07-13 05:37:00,
2013-07-12 22:42:00,62.1,61.0,29.85,East,89,0.0,3.0,96,0.00,,---,0.00,0.00,VWS V14.00,2013-07-13 05:42:00,
2013-07-12 22:47:00,62.3,61.2,29.86,East,89,0.0,0.0,96,0.00,,---,0.00,0.00,VWS V14.00,2013-07-13 05:47:00,
2013-07-12 22:52:00,62.3,61.2,29.86,ESE,114,0.0,0.0,96,0.00,,---,0.00,0.00,VWS V14.00,2013-07-13 05:52:00,
2013-07-12 22:57:00,62.1,61.0,29.86,ESE,114,0.0,0.0,96,0.00,,---,0.00,0.00,VWS V14.00,2013-07-13 05:57:00,
2013-07-12 23:02:00,62.1,61.0,29.86,ESE,112,0.0,0.0,96,0.00,,---,0.00,0.00,VWS V14.00,2013-07-13 06:02:00,
2013-07-12 23:07:00,62.1,61.0,29.86,East,93,0.0,0.0,96,0.00,,---,0.00,0.00,VWS V14.00,2013-07-13 06:07:00,
2013-07-12 23:12:00,62.1,61.0,29.86,ESE,114,0.0,3.0,96,0.00,,---,0.00,0.00,VWS V14.00,2013-07-13 06:12:00,
2013-07-12 23:17:00,62.1,61.0,29.87,East,89,0.0,0.0,96,0.00,,---,0.00,0.00,VWS V14.00,2013-07-13 06:17:00,
2013-07-12 23:22:00,62.0,60.8,29.87,ENE,76,0.0,3.0,96,0.00,,---,0.00,0.00,VWS V14.00,2013-07-13 06:22:00,
2013-07-12 23:27:00,62.0,60.8,29.87,East,82,4.0,4.0,96,0.00,,---,0.00,0.00,VWS V14.00,2013-07-13 06:27:00,
2013-07-12 23:32:00,61.8,60.7,29.87,East,80,0.0,0.0,96,0.00,,---,0.00,0.00,VWS V14.00,2013-07-13 06:32:00,
2013-07-12 23:37:00,61.8,60.7,29.87,East,98,0.0,1.0,96,0.00,,---,0.00,0.00,VWS V14.00,2013-07-13 06:37:00,
2013-07-12 23:42:00,61.8,60.7,29.87,ENE,73,0.0,3.0,96,0.00,,---,0.00,0.00,VWS V14.00,2013-07-13 06:42:00,
2013-07-12 23:47:00,61.8,60.7,29.88,ENE,68,1.0,5.0,96,0.00,,---,0.00,0.00,VWS V14.00,2013-07-13 06:47:00,
2013-07-12 23:52:00,61.8,60.7,29.88,SE,139,0.0,1.0,96,0.00,,---,0.00,0.00,VWS V14.00,2013-07-13 06:52:00,
2013-07-12 23:57:00,61.8,60.7,29.88,East,98,0.0,0.0,96,0.00,,---,0.00,0.00,VWS V14.00,2013-07-13 06:57:00,